Time;durP1;ratioP1;P1;durP2;ratioP2;P2;SDS_P1;SDS_P2;PMS_P1;PMS_P2;Temp;Humidity;BMP_temperature;BMP_pressure;BME280_temperature;BME280_humidity;BME280_pressure;Samples;Min_cycle;Max_cycle;Signal;HPM_P1;HPM_P2
2023/05/29 04:16:55;;;;;;;;;29.33;25.00;;;;;;;;6491403;46;9753;-53
2023/05/29 04:23:00;;;;;;;;;23.33;21.33;;;;;;;;6490606;31;8834;-54
2023/05/29 04:29:03;;;;;;;;;24.67;22.67;;;;;;;;6490871;39;8876;-53
2023/05/29 04:35:07;;;;;;;;;23.00;21.33;;;;;;;;6488332;39;8929;-53
2023/05/29 04:41:23;;;;;;;;;26.33;25.00;;;;;;;;6490280;39;8895;-52
2023/05/29 04:47:27;;;;;;;;;23.00;22.33;;;;;;;;6490122;39;8886;-50
2023/05/29 04:53:30;;;;;;;;;22.33;21.67;;;;;;;;6490356;39;8922;-54
2023/05/29 04:59:33;;;;;;;;;25.67;21.33;;;;;;;;6491424;39;8928;-52
2023/05/29 05:05:36;;;;;;;;;28.67;25.67;;;;;;;;6489079;47;8964;-56
2023/05/29 05:11:38;;;;;;;;;49.33;40.33;;;;;;;;6489235;39;8939;-54
2023/05/29 05:17:43;;;;;;;;;42.33;38.33;;;;;;;;6488079;39;8859;-51
2023/05/29 05:23:46;;;;;;;;;29.00;27.33;;;;;;;;6489113;46;8894;-53
2023/05/29 05:30:03;;;;;;;;;16.25;16.25;;;;;;;;6489817;46;8946;-55
2023/05/29 05:36:07;;;;;;;;;18.50;17.00;;;;;;;;6489608;39;8863;-55
2023/05/29 05:42:13;;;;;;;;;14.75;13.00;;;;;;;;6489695;39;9031;-54
2023/05/29 05:48:30;;;;;;;;;16.33;14.00;;;;;;;;6490221;31;9767;-55
2023/05/29 05:54:36;;;;;;;;;11.00;11.00;;;;;;;;6489107;46;8957;-55
2023/05/29 06:00:40;;;;;;;;;13.50;13.25;;;;;;;;6489492;31;8977;-54
2023/05/29 06:06:43;;;;;;;;;15.00;13.25;;;;;;;;6489897;31;8884;-56
2023/05/29 06:12:48;;;;;;;;;12.00;10.50;;;;;;;;6490746;31;8959;-54
2023/05/29 06:18:58;;;;;;;;;17.00;13.75;;;;;;;;6488788;46;8880;-56
2023/05/29 06:25:07;;;;;;;;;10.75;10.75;;;;;;;;6488876;39;10018;-54
2023/05/29 06:31:11;;;;;;;;;11.00;11.00;;;;;;;;6487457;46;9120;-55
2023/05/29 06:37:13;;;;;;;;;11.00;10.25;;;;;;;;6487468;39;8966;-52
2023/05/29 06:43:17;;;;;;;;;14.25;11.00;;;;;;;;6489604;31;8964;-56
2023/05/29 06:49:23;;;;;;;;;15.00;13.75;;;;;;;;6491736;31;8920;-55
2023/05/29 06:55:27;;;;;;;;;7.75;7.00;;;;;;;;6487981;39;8952;-56
2023/05/29 07:01:32;;;;;;;;;12.50;11.50;;;;;;;;6307794;31;10000523;-53
2023/05/29 07:07:37;;;;;;;;;12.25;11.50;;;;;;;;6488099;39;8862;-54
2023/05/29 07:13:41;;;;;;;;;13.75;12.25;;;;;;;;6487250;31;8932;-56
2023/05/29 07:19:44;;;;;;;;;15.00;14.00;;;;;;;;6484660;39;9080;-58
2023/05/29 07:25:47;;;;;;;;;14.25;10.50;;;;;;;;6487837;39;8946;-53
2023/05/29 07:31:51;;;;;;;;;12.75;11.25;;;;;;;;6484947;39;8987;-55
2023/05/29 07:37:58;;;;;;;;;11.75;10.25;;;;;;;;6487591;31;8983;-57
2023/05/29 07:44:02;;;;;;;;;14.00;11.75;;;;;;;;6486695;31;8955;-56
2023/05/29 07:50:06;;;;;;;;;16.75;14.00;;;;;;;;6488786;31;8931;-56
2023/05/29 07:56:10;;;;;;;;;9.75;8.75;;;;;;;;6486675;39;9663;-55
2023/05/29 08:02:13;;;;;;;;;15.50;14.00;;;;;;;;6487467;39;8940;-53
2023/05/29 08:08:32;;;;;;;;;12.00;12.00;;;;;;;;6486546;46;8928;-55
2023/05/29 08:14:38;;;;;;;;;13.75;13.00;;;;;;;;6488175;31;9042;-54
2023/05/29 08:20:42;;;;;;;;;9.00;9.00;;;;;;;;6487959;39;8928;-56
2023/05/29 08:26:50;;;;;;;;;14.00;14.00;;;;;;;;6489270;31;9015;-50
2023/05/29 08:32:55;;;;;;;;;13.50;12.50;;;;;;;;6488003;47;8982;-51
2023/05/29 08:39:00;;;;;;;;;12.00;12.00;;;;;;;;6487300;31;9017;-51
2023/05/29 08:45:07;;;;;;;;;19.00;16.00;;;;;;;;6488059;39;8930;-52
2023/05/29 08:51:11;;;;;;;;;14.50;13.25;;;;;;;;6485705;47;8932;-52
2023/05/29 08:57:13;;;;;;;;;18.50;16.25;;;;;;;;6488100;31;8922;-52
2023/05/29 09:03:21;;;;;;;;;14.75;14.75;;;;;;;;6488441;46;8987;-54
2023/05/29 09:09:27;;;;;;;;;20.00;17.50;;;;;;;;6489321;31;9067;-52
2023/05/29 09:15:31;;;;;;;;;15.00;13.50;;;;;;;;6487169;39;8943;-51
2023/05/29 09:21:33;;;;;;;;;15.50;15.00;;;;;;;;6485887;39;9670;-55
2023/05/29 09:27:40;;;;;;;;;15.00;14.25;;;;;;;;6487402;39;8935;-55
2023/05/29 09:33:49;;;;;;;;;14.25;14.25;;;;;;;;6488453;39;8924;-54
2023/05/29 09:39:52;;;;;;;;;14.25;14.25;;;;;;;;6489089;39;8912;-51
2023/05/29 09:45:56;;;;;;;;;12.75;12.75;;;;;;;;6488238;39;9609;-53
2023/05/29 09:52:00;;;;;;;;;15.50;15.00;;;;;;;;6487277;46;9091;-53
2023/05/29 09:58:05;;;;;;;;;16.50;16.50;;;;;;;;6488062;39;9635;-51
2023/05/29 10:04:11;;;;;;;;;14.75;14.50;;;;;;;;6487533;39;9147;-50
2023/05/29 10:10:18;;;;;;;;;21.75;18.50;;;;;;;;6486332;46;9034;-55
2023/05/29 10:16:24;;;;;;;;;15.25;14.75;;;;;;;;6487679;39;8968;-54
2023/05/29 10:22:28;;;;;;;;;14.25;13.25;;;;;;;;6486186;46;8898;-52
2023/05/29 10:28:34;;;;;;;;;10.25;9.50;;;;;;;;6488832;31;8911;-55
2023/05/29 10:34:51;;;;;;;;;10.75;10.50;;;;;;;;6488514;39;9181;-53
2023/05/29 10:40:54;;;;;;;;;16.50;14.50;;;;;;;;6487579;39;8916;-56
2023/05/29 10:46:57;;;;;;;;;11.75;11.75;;;;;;;;6487282;46;9027;-57
2023/05/29 10:53:00;;;;;;;;;13.00;13.00;;;;;;;;6485126;39;8964;-52
2023/05/29 10:59:08;;;;;;;;;15.50;13.50;;;;;;;;6487182;31;8928;-54
2023/05/29 11:05:24;;;;;;;;;13.75;12.75;;;;;;;;6488062;39;9076;-55
2023/05/29 11:11:36;;;;;;;;;14.25;14.00;;;;;;;;6485863;39;8984;-54
2023/05/29 11:17:38;;;;;;;;;14.50;12.75;;;;;;;;6486129;31;9032;-50
2023/05/29 11:23:42;;;;;;;;;17.75;15.50;;;;;;;;6486439;39;8963;-55
2023/05/29 11:29:45;;;;;;;;;15.25;15.25;;;;;;;;6486884;31;9240;-53
2023/05/29 11:35:56;;;;;;;;;14.75;11.75;;;;;;;;6484090;39;8919;-52
2023/05/29 11:42:00;;;;;;;;;16.50;16.25;;;;;;;;6483697;39;9023;-53
2023/05/29 11:48:04;;;;;;;;;12.25;12.25;;;;;;;;6486689;39;8972;-53
2023/05/29 11:54:07;;;;;;;;;13.00;11.00;;;;;;;;6485412;31;8944;-56
2023/05/29 12:00:16;;;;;;;;;14.50;13.50;;;;;;;;6486872;39;8999;-57
2023/05/29 12:06:38;;;;;;;;;14.50;13.00;;;;;;;;6487479;31;9031;-54
2023/05/29 12:12:42;;;;;;;;;11.25;11.25;;;;;;;;6486846;46;8972;-53
2023/05/29 12:18:48;;;;;;;;;13.50;12.50;;;;;;;;6485667;31;8952;-50
2023/05/29 12:24:58;;;;;;;;;12.00;12.00;;;;;;;;6485274;46;8940;-54
2023/05/29 12:31:01;;;;;;;;;12.75;10.75;;;;;;;;6483869;39;8995;-53
2023/05/29 12:37:13;;;;;;;;;12.50;12.25;;;;;;;;6483663;39;8985;-53
2023/05/29 12:43:17;;;;;;;;;11.00;11.00;;;;;;;;6486804;39;8916;-53
2023/05/29 12:49:20;;;;;;;;;13.50;13.50;;;;;;;;6483143;39;8963;-52
2023/05/29 12:55:24;;;;;;;;;12.00;12.00;;;;;;;;6483991;39;9043;-55
2023/05/29 13:01:30;;;;;;;;;10.50;10.50;;;;;;;;6482793;47;9041;-56
2023/05/29 13:07:34;;;;;;;;;10.75;10.75;;;;;;;;6485462;39;9559;-54
2023/05/29 13:13:36;;;;;;;;;13.25;12.00;;;;;;;;6483122;39;8969;-53
2023/05/29 13:19:43;;;;;;;;;15.00;15.00;;;;;;;;6481445;39;9364;-54
2023/05/29 13:25:48;;;;;;;;;19.00;19.00;;;;;;;;6484214;39;9634;-55
2023/05/29 13:31:51;;;;;;;;;24.50;23.75;;;;;;;;6485850;39;9047;-53
2023/05/29 13:37:53;;;;;;;;;15.00;13.50;;;;;;;;6486425;31;8925;-53
2023/05/29 13:43:55;;;;;;;;;13.00;11.50;;;;;;;;6487160;39;9040;-52
2023/05/29 13:50:00;;;;;;;;;15.25;12.75;;;;;;;;6489359;31;9728;-53
2023/05/29 13:56:04;;;;;;;;;17.00;14.33;;;;;;;;6488802;46;8938;-51
2023/05/29 14:02:11;;;;;;;;;11.75;11.75;;;;;;;;6488319;31;8932;-50
2023/05/29 14:08:14;;;;;;;;;11.50;11.00;;;;;;;;6489014;31;8990;-52
2023/05/29 14:14:19;;;;;;;;;14.00;12.25;;;;;;;;6489532;39;9575;-54
2023/05/29 14:20:21;;;;;;;;;14.50;13.50;;;;;;;;6488041;46;8970;-51
2023/05/29 14:26:24;;;;;;;;;12.00;11.25;;;;;;;;6486938;39;8883;-53
2023/05/29 14:32:27;;;;;;;;;12.50;11.25;;;;;;;;6488684;46;8995;-51
2023/05/29 14:38:32;;;;;;;;;9.25;9.25;;;;;;;;6487423;39;8917;-54
2023/05/29 14:44:34;;;;;;;;;14.67;14.00;;;;;;;;6488584;39;8939;-54
2023/05/29 14:50:38;;;;;;;;;12.50;11.50;;;;;;;;6489222;39;8864;-53
2023/05/29 14:56:40;;;;;;;;;15.00;14.00;;;;;;;;6487875;39;8927;-56
2023/05/29 15:02:42;;;;;;;;;9.50;9.50;;;;;;;;6489060;31;9666;-54
2023/05/29 15:08:47;;;;;;;;;12.00;11.00;;;;;;;;6489031;31;9349;-52
2023/05/29 15:14:49;;;;;;;;;10.00;10.00;;;;;;;;6489399;39;9556;-51
2023/05/29 15:20:53;;;;;;;;;9.25;9.25;;;;;;;;6488077;39;8883;-52
2023/05/29 15:26:57;;;;;;;;;12.00;10.75;;;;;;;;6489238;31;8861;-54
2023/05/29 15:33:07;;;;;;;;;8.50;7.25;;;;;;;;6489067;39;8938;-52
2023/05/29 15:39:09;;;;;;;;;13.25;11.50;;;;;;;;6488435;46;8938;-53
2023/05/29 15:45:14;;;;;;;;;11.50;9.75;;;;;;;;6488687;46;8891;-55
2023/05/29 15:51:19;;;;;;;;;11.00;11.00;;;;;;;;6487766;46;8868;-53
2023/05/29 15:57:23;;;;;;;;;12.75;12.25;;;;;;;;6488431;31;8915;-52
2023/05/29 16:03:26;;;;;;;;;11.00;10.00;;;;;;;;6499839;36;8932;-53
2023/05/29 16:09:29;;;;;;;;;9.00;9.00;;;;;;;;6488385;46;8864;-53
2023/05/29 16:15:31;;;;;;;;;9.50;8.50;;;;;;;;6488639;39;8888;-52
2023/05/29 16:21:36;;;;;;;;;8.25;8.25;;;;;;;;6488662;31;8871;-51
2023/05/29 16:27:38;;;;;;;;;13.00;11.00;;;;;;;;6488957;39;8880;-52
2023/05/29 16:33:44;;;;;;;;;14.33;12.00;;;;;;;;6488921;39;8986;-53
2023/05/29 16:39:49;;;;;;;;;15.50;14.50;;;;;;;;6488699;31;8691;-52
2023/05/29 16:45:52;;;;;;;;;14.00;12.00;;;;;;;;6488383;39;8905;-49
2023/05/29 16:51:55;;;;;;;;;15.50;14.25;;;;;;;;6487609;39;8900;-52
2023/05/29 16:57:59;;;;;;;;;13.25;13.25;;;;;;;;6488372;47;8880;-51
2023/05/29 17:04:02;;;;;;;;;15.00;14.00;;;;;;;;6488378;39;8916;-49
2023/05/29 17:10:06;;;;;;;;;18.00;15.75;;;;;;;;6487434;31;8883;-51
2023/05/29 17:16:08;;;;;;;;;13.75;13.75;;;;;;;;6488251;46;8943;-55
2023/05/29 17:22:10;;;;;;;;;16.75;14.00;;;;;;;;6489514;39;8872;-51
2023/05/29 17:28:13;;;;;;;;;12.50;11.25;;;;;;;;6490319;31;8926;-52
2023/05/29 17:34:16;;;;;;;;;15.25;14.50;;;;;;;;6489554;46;8991;-53
2023/05/29 17:40:18;;;;;;;;;17.25;16.00;;;;;;;;6489512;39;8884;-50
2023/05/29 17:46:21;;;;;;;;;16.75;16.25;;;;;;;;6489750;39;8899;-51
2023/05/29 17:52:24;;;;;;;;;17.50;16.00;;;;;;;;6489292;46;8966;-52
2023/05/29 17:58:28;;;;;;;;;18.00;16.75;;;;;;;;6490028;39;8859;-53
2023/05/29 18:04:30;;;;;;;;;19.00;18.00;;;;;;;;6489473;46;8915;-53
2023/05/29 18:10:34;;;;;;;;;18.75;16.75;;;;;;;;6490126;39;8958;-52
2023/05/29 18:16:40;;;;;;;;;17.25;17.25;;;;;;;;6490875;39;8899;-53
2023/05/29 18:22:45;;;;;;;;;16.00;16.00;;;;;;;;6489761;39;8981;-50
2023/05/29 18:28:47;;;;;;;;;16.50;16.50;;;;;;;;6488901;39;8862;-51
2023/05/29 18:34:51;;;;;;;;;21.00;18.00;;;;;;;;6489832;39;8934;-52
2023/05/29 18:40:53;;;;;;;;;20.00;17.67;;;;;;;;6489670;39;8885;-51
2023/05/29 18:46:58;;;;;;;;;18.00;17.00;;;;;;;;6489793;39;8877;-57
2023/05/29 18:53:03;;;;;;;;;20.50;17.00;;;;;;;;6489096;39;8913;-51
2023/05/29 18:59:05;;;;;;;;;19.00;16.75;;;;;;;;6489219;46;8992;-50
2023/05/29 19:05:08;;;;;;;;;17.00;17.00;;;;;;;;6488519;46;8897;-50
2023/05/29 19:11:15;;;;;;;;;17.50;14.50;;;;;;;;6488128;39;9361;-49
2023/05/29 19:17:18;;;;;;;;;18.25;17.25;;;;;;;;6489622;39;8915;-50
2023/05/29 19:23:20;;;;;;;;;20.00;19.25;;;;;;;;6488102;39;9374;-49
2023/05/29 19:29:23;;;;;;;;;21.50;21.50;;;;;;;;6489680;39;8864;-51
2023/05/29 19:35:26;;;;;;;;;24.00;20.67;;;;;;;;6488809;46;8888;-52
2023/05/29 19:41:28;;;;;;;;;16.00;16.00;;;;;;;;6488897;31;8828;-50
2023/05/29 19:47:30;;;;;;;;;23.50;23.50;;;;;;;;6488599;39;8906;-54
2023/05/29 19:53:36;;;;;;;;;22.33;20.00;;;;;;;;6488502;31;8860;-49
2023/05/29 19:59:42;;;;;;;;;21.50;21.50;;;;;;;;6489499;31;8900;-50
2023/05/29 20:05:44;;;;;;;;;24.00;23.67;;;;;;;;6488148;46;8945;-51
2023/05/29 20:11:47;;;;;;;;;26.00;24.00;;;;;;;;6489170;31;9042;-51
2023/05/29 20:17:49;;;;;;;;;23.25;23.25;;;;;;;;6488409;39;8907;-50
2023/05/29 20:23:51;;;;;;;;;24.75;23.25;;;;;;;;6488710;39;8849;-51
2023/05/29 20:29:54;;;;;;;;;22.75;22.75;;;;;;;;6489206;31;8856;-52
2023/05/29 20:35:58;;;;;;;;;24.00;23.00;;;;;;;;6488138;46;8841;-51
2023/05/29 20:42:02;;;;;;;;;25.75;23.75;;;;;;;;6488191;39;9665;-48
2023/05/29 20:48:05;;;;;;;;;26.75;22.50;;;;;;;;6488078;39;8872;-50
2023/05/29 20:54:07;;;;;;;;;25.00;24.33;;;;;;;;6490577;39;8958;-50
2023/05/29 21:00:12;;;;;;;;;26.33;25.00;;;;;;;;6491073;39;9571;-51
2023/05/29 21:06:14;;;;;;;;;25.00;24.00;;;;;;;;6489817;46;8875;-50
2023/05/29 21:12:16;;;;;;;;;24.33;24.33;;;;;;;;6489755;46;8944;-50
2023/05/29 21:18:19;;;;;;;;;29.33;25.33;;;;;;;;6490175;39;8863;-50
2023/05/29 21:24:22;;;;;;;;;26.67;25.00;;;;;;;;6489775;46;8844;-50
2023/05/29 21:30:26;;;;;;;;;23.00;21.00;;;;;;;;6490210;39;8903;-53
2023/05/29 21:36:28;;;;;;;;;24.00;20.67;;;;;;;;6489429;39;8828;-52
2023/05/29 21:42:31;;;;;;;;;20.67;20.67;;;;;;;;6489969;39;8898;-48
2023/05/29 21:48:34;;;;;;;;;21.00;19.00;;;;;;;;6489675;46;8876;-50
2023/05/29 21:54:36;;;;;;;;;23.50;22.50;;;;;;;;6488738;31;8910;-52
2023/05/29 22:00:39;;;;;;;;;22.33;21.67;;;;;;;;6488970;39;9320;-51
2023/05/29 22:06:42;;;;;;;;;23.33;17.67;;;;;;;;6489093;46;8848;-52
2023/05/29 22:12:45;;;;;;;;;13.00;13.00;;;;;;;;6488879;46;8965;-51
2023/05/29 22:18:47;;;;;;;;;23.67;23.00;;;;;;;;6489227;39;8982;-53
2023/05/29 22:25:06;;;;;;;;;17.67;17.67;;;;;;;;6489445;39;8855;-51
2023/05/29 22:31:09;;;;;;;;;15.67;15.67;;;;;;;;6490317;39;8907;-49
2023/05/29 22:37:12;;;;;;;;;19.00;18.33;;;;;;;;6488451;46;8883;-52
2023/05/29 22:43:14;;;;;;;;;17.00;16.00;;;;;;;;6489524;46;8867;-52
2023/05/29 22:49:18;;;;;;;;;22.00;19.00;;;;;;;;6489125;46;8848;-51
2023/05/29 22:55:20;;;;;;;;;17.67;17.33;;;;;;;;6489642;39;8934;-51
2023/05/29 23:01:24;;;;;;;;;21.00;19.33;;;;;;;;6489704;39;8900;-51
2023/05/29 23:07:27;;;;;;;;;22.00;18.00;;;;;;;;6489031;46;8959;-49
2023/05/29 23:13:30;;;;;;;;;16.00;15.67;;;;;;;;6490309;39;8900;-49
2023/05/29 23:19:34;;;;;;;;;20.00;17.67;;;;;;;;6488825;39;8979;-50
2023/05/29 23:25:36;;;;;;;;;21.00;21.00;;;;;;;;6489834;39;9476;-49
2023/05/29 23:31:39;;;;;;;;;19.67;18.33;;;;;;;;6489055;39;9507;-49
2023/05/29 23:37:41;;;;;;;;;20.00;19.33;;;;;;;;6488557;46;8828;-49
2023/05/29 23:43:43;;;;;;;;;18.33;17.00;;;;;;;;6488573;39;8856;-49
2023/05/29 23:49:46;;;;;;;;;15.67;15.67;;;;;;;;6488502;46;8887;-48
2023/05/29 23:55:49;;;;;;;;;20.00;20.00;;;;;;;;6488361;39;8876;-52
